createdAt,value
2019-05-22T00:00:16.553Z,93.79
2019-05-22T00:01:16.746Z,93.48
2019-05-22T00:02:16.958Z,93.69
2019-05-22T00:03:17.203Z,93.99
2019-05-22T00:04:17.286Z,93.74
2019-05-22T00:05:18.184Z,93.59
2019-05-22T00:06:17.762Z,93.24
2019-05-22T00:07:17.960Z,93.44
2019-05-22T00:08:18.221Z,93.33
2019-05-22T00:09:18.300Z,93.33
2019-05-22T00:10:18.543Z,93.33
2019-05-22T00:11:18.740Z,93.44
2019-05-22T00:12:19.664Z,92.72
2019-05-22T00:13:19.089Z,93.44
2019-05-22T00:14:20.184Z,93.44
2019-05-22T00:15:19.492Z,93.59
2019-05-22T00:16:20.171Z,94.26
2019-05-22T00:17:19.832Z,93.33
2019-05-22T00:18:20.680Z,93.33
2019-05-22T00:19:20.210Z,94.46
2019-05-22T00:20:20.386Z,93.85
2019-05-22T00:21:21.160Z,93.59
2019-05-22T00:22:20.689Z,93.79
2019-05-22T00:23:20.865Z,93.99
2019-05-22T00:24:21.187Z,93.74
2019-05-22T00:25:21.236Z,93.79
2019-05-22T00:26:22.174Z,94.81
2019-05-22T00:27:21.554Z,95.21
2019-05-22T00:28:21.710Z,94.60
2019-05-22T00:29:22.184Z,94.81
2019-05-22T00:30:22.196Z,94.91
2019-05-22T00:31:22.210Z,95.32
2019-05-22T00:32:22.360Z,94.71
2019-05-22T00:33:22.503Z,93.69
2019-05-22T00:34:22.671Z,94.60
2019-05-22T00:35:22.883Z,95.12
2019-05-22T00:36:23.021Z,94.81
2019-05-22T00:37:23.186Z,94.87
2019-05-22T00:38:24.359Z,94.05
2019-05-22T00:39:23.591Z,95.17
2019-05-22T00:40:23.778Z,95.32
2019-05-22T00:41:24.677Z,94.81
2019-05-22T00:42:24.684Z,94.09
2019-05-22T00:43:24.221Z,95.21
2019-05-22T00:44:24.425Z,94.55
2019-05-22T00:45:24.602Z,95.67
2019-05-22T00:46:24.768Z,96.08
2019-05-22T00:47:24.956Z,95.87
2019-05-22T00:48:25.127Z,95.97
2019-05-22T00:49:25.291Z,95.93
2019-05-22T00:50:25.683Z,95.73
2019-05-22T00:51:25.740Z,95.52
2019-05-22T00:52:25.922Z,95.21
2019-05-22T00:53:26.066Z,95.12
2019-05-22T00:54:26.213Z,93.89
2019-05-22T00:55:26.339Z,94.71
2019-05-22T00:56:27.539Z,95.32
2019-05-22T00:57:27.180Z,95.32
2019-05-22T00:58:27.674Z,95.12
2019-05-22T00:59:27.046Z,95.07
2019-05-22T01:00:27.209Z,93.59
2019-05-22T01:01:27.410Z,94.30
2019-05-22T01:02:27.541Z,94.71
2019-05-22T01:03:27.694Z,94.76
2019-05-22T01:04:28.686Z,94.40
2019-05-22T01:05:28.061Z,94.91
2019-05-22T01:06:28.256Z,95.36
2019-05-22T01:07:28.455Z,94.65
2019-05-22T01:08:29.613Z,94.85
2019-05-22T01:09:28.734Z,96.18
2019-05-22T01:10:29.685Z,95.73
2019-05-22T01:11:29.134Z,95.42
2019-05-22T01:12:29.311Z,95.06
2019-05-22T01:13:29.494Z,95.01
2019-05-22T01:14:41.929Z,95.01
2019-05-22T01:15:32.677Z,95.42
2019-05-22T01:16:30.099Z,95.47
2019-05-22T01:17:30.302Z,95.93
2019-05-22T01:18:31.222Z,95.01
2019-05-22T01:19:30.634Z,94.81
2019-05-22T01:20:30.845Z,95.26
2019-05-22T01:21:31.729Z,95.21
2019-05-22T01:22:32.183Z,95.36
2019-05-22T01:23:31.458Z,95.26
2019-05-22T01:24:32.173Z,95.87
2019-05-22T01:25:31.846Z,96.48
2019-05-22T01:26:32.058Z,95.83
2019-05-22T01:27:32.241Z,95.32
2019-05-22T01:28:32.716Z,95.01
2019-05-22T01:29:32.653Z,95.12
2019-05-22T01:30:32.827Z,93.95
2019-05-22T01:31:33.009Z,93.99
2019-05-22T01:32:33.179Z,94.40
2019-05-22T01:33:34.689Z,95.32
2019-05-22T01:34:33.580Z,95.12
2019-05-22T01:35:33.745Z,94.60
2019-05-22T01:36:34.679Z,95.42
2019-05-22T01:37:34.157Z,95.42
2019-05-22T01:38:34.390Z,94.40
2019-05-22T01:39:35.185Z,94.65
2019-05-22T01:40:35.686Z,94.65
2019-05-22T01:41:35.676Z,95.16
2019-05-22T01:42:35.225Z,95.87
2019-05-22T01:43:36.389Z,94.91
2019-05-22T01:44:35.542Z,94.95
2019-05-22T01:45:36.194Z,95.57
2019-05-22T01:46:36.687Z,95.12
2019-05-22T01:47:35.945Z,95.42
2019-05-22T01:48:36.692Z,95.21
2019-05-22T01:49:36.698Z,95.12
2019-05-22T01:50:36.474Z,94.71
2019-05-22T01:51:36.641Z,94.81
2019-05-22T01:52:37.679Z,95.06
2019-05-22T01:53:36.973Z,95.97
2019-05-22T01:54:37.188Z,95.32
2019-05-22T01:55:37.348Z,95.16
2019-05-22T01:56:38.184Z,95.06
2019-05-22T01:57:38.706Z,95.26
2019-05-22T01:58:37.876Z,93.93
2019-05-22T01:59:38.049Z,95.06
2019-05-22T02:00:39.174Z,95.67
2019-05-22T02:01:38.458Z,95.97
2019-05-22T02:02:38.619Z,95.47
2019-05-22T02:03:39.204Z,95.73
2019-05-22T02:04:38.982Z,95.32
2019-05-22T02:05:39.149Z,95.21
2019-05-22T02:06:39.335Z,94.71
2019-05-22T02:07:39.521Z,95.16
2019-05-22T02:08:39.769Z,95.16
2019-05-22T02:09:39.941Z,95.12
2019-05-22T02:10:40.110Z,95.01
2019-05-22T02:11:40.261Z,94.81
2019-05-22T02:12:40.433Z,94.91
2019-05-22T02:13:40.698Z,94.20
2019-05-22T02:14:41.540Z,94.09
2019-05-22T02:15:41.875Z,94.34
2019-05-22T02:16:55.552Z,95.16
2019-05-22T02:17:43.319Z,95.87
2019-05-22T02:18:41.525Z,95.31
2019-05-22T02:19:41.667Z,96.12
2019-05-22T02:20:41.760Z,96.33
2019-05-22T02:21:42.202Z,96.28
2019-05-22T02:22:42.193Z,95.97
2019-05-22T02:23:42.314Z,96.79
2019-05-22T02:24:42.569Z,95.97
2019-05-22T02:25:42.698Z,96.43
2019-05-22T02:26:42.851Z,95.67
2019-05-22T02:27:42.969Z,95.47
2019-05-22T02:28:43.078Z,95.31
2019-05-22T02:29:43.258Z,95.61
2019-05-22T02:30:43.520Z,96.22
2019-05-22T02:31:43.681Z,96.22
2019-05-22T02:32:43.807Z,96.22
2019-05-22T02:33:43.944Z,96.63
2019-05-22T02:34:44.076Z,96.89
2019-05-22T02:35:45.283Z,96.22
2019-05-22T02:36:44.413Z,95.61
2019-05-22T02:37:45.217Z,96.02
2019-05-22T02:38:44.751Z,96.43
2019-05-22T02:39:45.693Z,96.53
2019-05-22T02:40:45.148Z,95.36
2019-05-22T02:41:45.330Z,95.47
2019-05-22T02:42:45.551Z,95.92
2019-05-22T02:43:45.722Z,96.69
2019-05-22T02:44:46.696Z,96.28
2019-05-22T02:45:46.126Z,96.08
2019-05-22T02:46:46.718Z,94.85
2019-05-22T02:47:46.543Z,94.75
2019-05-22T02:48:46.755Z,95.25
2019-05-22T02:49:46.964Z,96.58
2019-05-22T02:50:47.153Z,97.19
2019-05-22T02:51:47.350Z,97.19
2019-05-22T02:52:47.535Z,96.84
2019-05-22T02:53:47.684Z,97.65
2019-05-22T02:54:47.834Z,95.92
2019-05-22T02:55:47.994Z,95.77
2019-05-22T02:56:48.172Z,96.18
2019-05-22T02:57:48.355Z,95.67
2019-05-22T02:58:48.485Z,95.12
2019-05-22T02:59:48.732Z,94.81
2019-05-22T03:00:48.861Z,94.04
2019-05-22T03:01:49.037Z,95.26
2019-05-22T03:02:49.195Z,95.16
2019-05-22T03:03:49.370Z,94.65
2019-05-22T03:04:49.533Z,95.16
2019-05-22T03:05:49.693Z,94.79
2019-05-22T03:06:49.862Z,95.10
2019-05-22T03:07:50.708Z,95.51
2019-05-22T03:08:50.225Z,95.25
2019-05-22T03:09:51.205Z,95.72
2019-05-22T03:10:50.614Z,96.27
2019-05-22T03:11:50.782Z,96.06
2019-05-22T03:12:50.930Z,95.65
2019-05-22T03:13:51.098Z,95.76
2019-05-22T03:14:51.232Z,95.96
2019-05-22T03:15:51.403Z,96.01
2019-05-22T03:16:51.570Z,96.21
2019-05-22T03:17:51.724Z,97.33
2019-05-22T03:19:07.833Z,97.13
2019-05-22T03:19:54.122Z,97.13
2019-05-22T03:20:52.341Z,96.87
2019-05-22T03:21:52.476Z,97.13
2019-05-22T03:22:53.702Z,96.46
2019-05-22T03:23:52.973Z,97.38
2019-05-22T03:24:53.110Z,97.49
2019-05-22T03:25:53.259Z,97.28
2019-05-22T03:26:53.377Z,97.69
2019-05-22T03:27:53.513Z,97.58
2019-05-22T03:28:53.658Z,97.58
2019-05-22T03:29:53.792Z,97.69
2019-05-22T03:30:53.968Z,97.69
2019-05-22T03:31:55.172Z,97.79
2019-05-22T03:32:54.430Z,97.28
2019-05-22T03:33:54.599Z,97.08
2019-05-22T03:34:55.213Z,96.83
2019-05-22T03:35:55.709Z,97.69
2019-05-22T03:36:55.318Z,97.69
2019-05-22T03:37:55.361Z,97.49
2019-05-22T03:38:55.549Z,96.56
2019-05-22T03:39:55.712Z,97.69
2019-05-22T03:40:55.888Z,97.63
2019-05-22T03:41:56.704Z,97.53
2019-05-22T03:42:56.288Z,97.53
2019-05-22T03:43:56.468Z,97.53
2019-05-22T03:44:57.210Z,97.49
2019-05-22T03:45:56.737Z,97.74
2019-05-22T03:46:59.400Z,97.38
2019-05-22T03:47:58.026Z,97.02
2019-05-22T03:48:58.187Z,97.22
2019-05-22T03:49:57.329Z,97.53
2019-05-22T03:50:57.506Z,97.49
2019-05-22T03:51:58.679Z,97.02
2019-05-22T03:52:57.781Z,96.41
2019-05-22T03:53:57.944Z,95.89
2019-05-22T03:54:58.095Z,96.30
2019-05-22T03:55:58.213Z,96.81
2019-05-22T03:56:58.363Z,96.41
2019-05-22T03:57:58.489Z,96.51
2019-05-22T03:58:58.610Z,96.20
2019-05-22T03:59:58.755Z,96.41
2019-05-22T04:00:58.908Z,95.94
2019-05-22T04:01:59.101Z,96.41
2019-05-22T04:02:59.261Z,96.10
2019-05-22T04:03:59.413Z,96.04
2019-05-22T04:04:59.566Z,95.73
2019-05-22T04:05:59.738Z,95.94
2019-05-22T04:07:00.901Z,96.04
2019-05-22T04:08:00.056Z,96.96
2019-05-22T04:09:00.202Z,96.75
2019-05-22T04:10:00.347Z,96.55
2019-05-22T04:11:00.507Z,96.34
2019-05-22T04:12:00.723Z,96.71
2019-05-22T04:13:00.881Z,96.75
2019-05-22T04:14:01.027Z,96.45
2019-05-22T04:15:01.172Z,96.10
2019-05-22T04:16:01.325Z,95.84
2019-05-22T04:17:01.507Z,96.25
2019-05-22T04:18:02.213Z,95.84
2019-05-22T04:19:01.808Z,96.25
2019-05-22T04:20:01.964Z,96.55
2019-05-22T04:21:02.109Z,96.25
2019-05-22T04:22:02.257Z,96.25
2019-05-22T04:23:03.409Z,95.32
2019-05-22T04:24:02.572Z,95.22
2019-05-22T04:25:02.716Z,95.78
2019-05-22T04:26:02.880Z,96.25
2019-05-22T04:27:03.079Z,96.14
2019-05-22T04:28:03.265Z,96.04
2019-05-22T04:29:04.212Z,96.14
2019-05-22T04:30:03.588Z,96.14
2019-05-22T04:31:04.201Z,95.53
2019-05-22T04:32:04.976Z,95.63
2019-05-22T04:33:04.102Z,95.12
2019-05-22T04:34:04.303Z,95.28
2019-05-22T04:35:04.464Z,94.30
2019-05-22T04:36:04.637Z,95.07
2019-05-22T04:37:04.823Z,95.12
2019-05-22T04:38:04.945Z,95.28
2019-05-22T04:39:06.086Z,95.28
2019-05-22T04:40:05.325Z,93.89
2019-05-22T04:41:05.469Z,95.12
2019-05-22T04:42:05.628Z,94.87
2019-05-22T04:43:05.751Z,95.63
2019-05-22T04:44:05.883Z,95.79
2019-05-22T04:45:06.010Z,94.93
2019-05-22T04:46:06.163Z,94.15
2019-05-22T04:47:06.341Z,94.36
2019-05-22T04:48:06.497Z,94.46
2019-05-22T04:49:07.215Z,93.54
2019-05-22T04:50:08.171Z,95.12
2019-05-22T04:51:08.087Z,95.38
2019-05-22T04:52:08.230Z,95.18
2019-05-22T04:53:07.333Z,96.30
2019-05-22T04:54:07.487Z,96.10
2019-05-22T04:55:07.624Z,95.48
2019-05-22T04:56:07.779Z,95.73
2019-05-22T04:57:07.973Z,95.89
2019-05-22T04:58:08.169Z,96.45
2019-05-22T04:59:08.336Z,96.30
2019-05-22T05:00:08.508Z,95.59
2019-05-22T05:01:08.642Z,95.07
2019-05-22T05:02:08.827Z,95.43
2019-05-22T05:03:09.017Z,95.73
2019-05-22T05:04:09.175Z,96.45
2019-05-22T05:05:09.309Z,96.34
2019-05-22T05:06:10.448Z,97.57
2019-05-22T05:07:09.685Z,97.57
2019-05-22T05:08:09.855Z,97.02
2019-05-22T05:09:10.005Z,97.74
2019-05-22T05:10:10.162Z,97.22
2019-05-22T05:11:10.337Z,97.12
2019-05-22T05:12:10.489Z,96.71
2019-05-22T05:13:10.669Z,95.69
2019-05-22T05:14:10.853Z,95.43
2019-05-22T05:15:11.005Z,96.29
2019-05-22T05:16:11.172Z,96.75
2019-05-22T05:17:11.315Z,97.53
2019-05-22T05:18:12.224Z,97.67
2019-05-22T05:19:11.673Z,96.96
2019-05-22T05:20:22.216Z,96.34
2019-05-22T05:21:13.986Z,95.98
2019-05-22T05:22:12.226Z,96.80
2019-05-22T05:23:12.408Z,96.86
2019-05-22T05:24:12.571Z,95.94
2019-05-22T05:25:12.773Z,95.84
2019-05-22T05:26:12.923Z,96.34
2019-05-22T05:27:13.081Z,97.16
2019-05-22T05:28:13.238Z,97.57
2019-05-22T05:29:13.400Z,97.27
2019-05-22T05:30:13.552Z,97.83
2019-05-22T05:31:13.687Z,96.45
2019-05-22T05:32:13.821Z,96.25
2019-05-22T05:33:13.959Z,96.41
2019-05-22T05:34:14.116Z,96.61
2019-05-22T05:35:14.268Z,96.34
2019-05-22T05:36:14.391Z,96.81
2019-05-22T05:37:14.525Z,95.63
2019-05-22T05:38:14.669Z,96.25
2019-05-22T05:39:14.844Z,95.98
2019-05-22T05:40:15.220Z,96.70
2019-05-22T05:41:15.232Z,96.49
2019-05-22T05:42:15.464Z,97.41
2019-05-22T05:43:15.587Z,97.82
2019-05-22T05:44:15.720Z,97.62
2019-05-22T05:45:15.887Z,98.19
2019-05-22T05:46:16.037Z,96.66
2019-05-22T05:47:16.179Z,97.41
2019-05-22T05:48:16.342Z,97.41
2019-05-22T05:49:16.476Z,97.41
2019-05-22T05:50:16.633Z,97.37
2019-05-22T05:51:16.797Z,96.39
2019-05-22T05:52:17.720Z,96.29
2019-05-22T05:53:17.093Z,96.70
2019-05-22T05:54:17.247Z,96.59
2019-05-22T05:55:17.406Z,95.72
2019-05-22T05:56:17.593Z,96.03
2019-05-22T05:57:18.713Z,96.64
2019-05-22T05:58:17.961Z,96.95
2019-05-22T05:59:18.113Z,96.74
2019-05-22T06:00:18.819Z,97.62
2019-05-22T06:01:18.472Z,97.57
2019-05-22T06:02:18.616Z,97.47
2019-05-22T06:03:19.722Z,96.86
2019-05-22T06:04:32.186Z,96.92
2019-05-22T06:05:20.192Z,96.45
2019-05-22T06:06:19.432Z,96.10
2019-05-22T06:07:19.583Z,95.89
2019-05-22T06:08:19.759Z,96.34
2019-05-22T06:09:19.923Z,95.32
2019-05-22T06:10:20.088Z,96.04
2019-05-22T06:11:20.231Z,95.47
2019-05-22T06:12:20.381Z,96.49
2019-05-22T06:13:20.528Z,96.86
2019-05-22T06:14:20.680Z,96.86
2019-05-22T06:15:20.852Z,96.81
2019-05-22T06:16:21.032Z,95.59
2019-05-22T06:17:21.207Z,95.22
2019-05-22T06:18:21.373Z,95.94
2019-05-22T06:19:21.551Z,95.94
2019-05-22T06:20:21.763Z,96.66
2019-05-22T06:21:22.711Z,97.06
2019-05-22T06:22:23.120Z,96.66
2019-05-22T06:23:22.258Z,96.25
2019-05-22T06:24:22.405Z,96.96
2019-05-22T06:25:22.745Z,96.04
2019-05-22T06:26:22.687Z,95.53
2019-05-22T06:27:22.889Z,95.12
2019-05-22T06:28:23.079Z,96.14
2019-05-22T06:29:27.152Z,96.14
2019-05-22T06:30:23.497Z,95.94
2019-05-22T06:31:23.658Z,96.66
2019-05-22T06:32:23.823Z,94.92
2019-05-22T06:33:24.008Z,95.57
2019-05-22T06:34:24.193Z,95.26
2019-05-22T06:35:24.395Z,95.26
2019-05-22T06:36:24.584Z,96.23
2019-05-22T06:37:24.744Z,96.49
2019-05-22T06:38:25.730Z,96.19
2019-05-22T06:39:25.124Z,95.47
2019-05-22T06:40:25.280Z,95.41
2019-05-22T06:41:25.435Z,95.41
2019-05-22T06:42:25.591Z,95.47
2019-05-22T06:43:26.253Z,95.57
2019-05-22T06:44:25.910Z,95.37
2019-05-22T06:45:26.048Z,95.78
2019-05-22T06:46:26.217Z,94.45
2019-05-22T06:47:26.355Z,93.88
2019-05-22T06:48:26.530Z,95.31
2019-05-22T06:49:26.673Z,95.57
2019-05-22T06:50:26.845Z,95.57
2019-05-22T06:51:26.997Z,94.30
2019-05-22T06:52:27.158Z,94.81
2019-05-22T06:53:27.357Z,94.51
2019-05-22T06:54:27.524Z,94.20
2019-05-22T06:55:27.710Z,93.79
2019-05-22T06:56:27.898Z,93.84
2019-05-22T06:57:28.062Z,93.63
2019-05-22T06:58:28.242Z,93.93
2019-05-22T06:59:28.410Z,94.24
2019-05-22T07:00:28.569Z,95.53
2019-05-22T07:01:28.745Z,94.55
2019-05-22T07:02:28.907Z,95.12
2019-05-22T07:03:29.105Z,95.12
2019-05-22T07:04:29.294Z,93.07
2019-05-22T07:05:29.466Z,93.95
2019-05-22T07:06:29.636Z,93.24
2019-05-22T07:07:29.838Z,93.33
2019-05-22T07:08:29.995Z,93.59
2019-05-22T07:09:30.252Z,93.48
2019-05-22T07:10:30.313Z,93.18
2019-05-22T07:11:30.477Z,93.33
2019-05-22T07:12:30.737Z,94.36
2019-05-22T07:13:30.772Z,94.11
2019-05-22T07:14:30.936Z,94.32
2019-05-22T07:15:31.345Z,93.44
2019-05-22T07:16:31.290Z,93.29
2019-05-22T07:17:31.506Z,93.33
2019-05-22T07:18:31.697Z,93.29
2019-05-22T07:19:31.890Z,91.05
2019-05-22T07:20:32.121Z,92.47
2019-05-22T07:21:34.133Z,93.29
2019-05-22T07:22:33.519Z,92.94
2019-05-22T07:23:32.640Z,92.94
2019-05-22T07:24:32.779Z,92.37
2019-05-22T07:25:33.976Z,91.72
2019-05-22T07:26:33.081Z,91.56
2019-05-22T07:27:33.263Z,91.72
2019-05-22T07:28:33.460Z,92.23
2019-05-22T07:29:33.640Z,90.49
2019-05-22T07:30:33.858Z,89.58
2019-05-22T07:31:34.723Z,90.49
2019-05-22T07:32:34.117Z,91.00
2019-05-22T07:33:34.261Z,89.26
2019-05-22T07:34:34.414Z,89.67
2019-05-22T07:35:49.816Z,88.65
2019-05-22T07:36:36.782Z,89.17
2019-05-22T07:37:35.023Z,87.94
2019-05-22T07:38:35.247Z,88.85
2019-05-22T07:39:35.391Z,88.85
2019-05-22T07:40:35.600Z,88.96
2019-05-22T07:41:35.699Z,90.29
2019-05-22T07:42:35.880Z,89.98
2019-05-22T07:43:41.253Z,88.85
2019-05-22T07:44:37.208Z,90.14
2019-05-22T07:45:36.448Z,88.82
2019-05-22T07:46:36.584Z,88.96
2019-05-22T07:47:36.764Z,86.00
2019-05-22T07:48:37.007Z,89.06
2019-05-22T07:49:37.737Z,88.76
2019-05-22T07:50:37.393Z,89.17
2019-05-22T07:51:51.457Z,87.32
2019-05-22T07:52:38.820Z,89.11
2019-05-22T07:53:37.981Z,89.17
2019-05-22T07:54:38.138Z,89.06
2019-05-22T07:55:38.298Z,89.17
2019-05-22T07:56:38.476Z,89.17
2019-05-22T07:57:38.665Z,89.78
2019-05-22T07:58:38.818Z,88.92
2019-05-22T07:59:38.995Z,89.23
2019-05-22T08:00:39.180Z,87.53
2019-05-22T08:01:39.366Z,88.76
2019-05-22T08:02:39.502Z,88.85
2019-05-22T08:03:39.675Z,90.08
2019-05-22T08:04:39.843Z,90.90
2019-05-22T08:05:39.976Z,91.27
2019-05-22T08:06:40.131Z,90.61
2019-05-22T08:07:40.413Z,88.78
2019-05-22T08:08:40.584Z,89.18
2019-05-22T08:09:41.738Z,87.61
2019-05-22T08:10:40.900Z,86.49
2019-05-22T08:11:41.079Z,85.00
2019-05-22T08:12:41.290Z,85.71
2019-05-22T08:13:41.491Z,85.10
2019-05-22T08:14:41.673Z,86.12
2019-05-22T08:15:41.876Z,85.82
2019-05-22T08:16:42.068Z,86.83
2019-05-22T08:17:42.251Z,85.75
2019-05-22T08:18:42.470Z,88.35
2019-05-22T08:19:42.655Z,87.29
2019-05-22T08:20:43.241Z,88.17
2019-05-22T08:21:43.046Z,88.88
2019-05-22T08:22:43.185Z,89.18
2019-05-22T08:23:44.320Z,87.76
2019-05-22T08:24:43.566Z,87.35
2019-05-22T08:25:43.744Z,85.37
2019-05-22T08:26:53.861Z,86.90
2019-05-22T08:27:46.042Z,85.37
2019-05-22T08:28:44.272Z,84.04
2019-05-22T08:29:44.480Z,85.10
2019-05-22T08:30:44.630Z,86.63
2019-05-22T08:31:44.806Z,87.14
2019-05-22T08:32:44.972Z,84.90
2019-05-22T08:33:45.149Z,86.73
2019-05-22T08:34:45.301Z,85.21
2019-05-22T08:35:45.455Z,85.61
2019-05-22T08:36:45.649Z,84.42
2019-05-22T08:37:45.801Z,85.24
2019-05-22T08:38:45.967Z,86.67
2019-05-22T08:39:46.105Z,87.76
2019-05-22T08:40:46.271Z,84.18
2019-05-22T08:41:46.449Z,85.61
2019-05-22T08:42:46.622Z,87.51
2019-05-22T08:44:13.747Z,86.80
2019-05-22T08:44:48.915Z,85.63
2019-05-22T08:45:47.154Z,84.92
2019-05-22T08:46:47.377Z,84.31
2019-05-22T08:47:48.545Z,83.45
2019-05-22T08:48:50.238Z,81.41
2019-05-22T08:49:48.734Z,83.65
2019-05-22T08:50:48.742Z,82.57
2019-05-22T08:51:48.167Z,80.74
2019-05-22T08:52:48.339Z,82.07
2019-05-22T08:53:48.886Z,82.07
2019-05-22T08:54:49.637Z,83.29
2019-05-22T08:55:48.759Z,81.01
2019-05-22T08:56:48.996Z,82.03
2019-05-22T08:57:49.202Z,84.03
2019-05-22T08:58:49.299Z,81.58
2019-05-22T08:59:49.470Z,81.11
2019-05-22T09:00:50.250Z,81.07
2019-05-22T09:01:49.756Z,79.48
2019-05-22T09:02:49.942Z,81.21
2019-05-22T09:03:50.075Z,81.21
2019-05-22T09:04:50.227Z,81.01
2019-05-22T09:05:51.369Z,82.19
2019-05-22T09:06:51.250Z,80.97
2019-05-22T09:07:50.762Z,79.24
2019-05-22T09:08:50.994Z,80.26
2019-05-22T09:09:52.066Z,81.07
2019-05-22T09:10:51.204Z,80.26
2019-05-22T09:11:51.358Z,81.13
2019-05-22T09:12:51.537Z,78.63
2019-05-22T09:13:51.738Z,78.08
2019-05-22T09:14:51.878Z,76.73
2019-05-22T09:15:52.043Z,79.48
2019-05-22T09:16:52.212Z,79.58
2019-05-22T09:17:52.403Z,79.21
2019-05-22T09:18:52.594Z,78.26
2019-05-22T09:19:52.768Z,79.27
2019-05-22T09:20:52.973Z,79.41
2019-05-22T09:21:53.163Z,78.50
2019-05-22T09:22:54.250Z,79.62
2019-05-22T09:23:53.522Z,79.68
2019-05-22T09:24:53.716Z,81.27
2019-05-22T09:25:53.912Z,77.91
2019-05-22T09:26:54.085Z,76.79
2019-05-22T09:27:54.278Z,79.41
2019-05-22T09:28:54.443Z,78.96
2019-05-22T09:29:54.619Z,76.42
2019-05-22T09:30:54.807Z,77.91
2019-05-22T09:31:54.976Z,77.47
2019-05-22T09:32:55.182Z,75.53
2019-05-22T09:33:55.350Z,72.72
2019-05-22T09:34:55.560Z,75.37
2019-05-22T09:35:55.710Z,75.20
2019-05-22T09:36:55.875Z,74.32
2019-05-22T09:37:56.063Z,75.16
2019-05-22T09:38:56.269Z,78.12
2019-05-22T09:39:56.447Z,79.68
2019-05-22T09:40:56.600Z,77.91
2019-05-22T09:41:56.757Z,78.39
2019-05-22T09:42:56.948Z,76.86
2019-05-22T09:43:57.105Z,76.65
2019-05-22T09:44:57.277Z,76.62
2019-05-22T09:45:57.442Z,77.13
2019-05-22T09:46:57.614Z,76.31
2019-05-22T09:47:58.778Z,73.67
2019-05-22T09:48:58.025Z,75.09
2019-05-22T09:49:58.180Z,77.94
2019-05-22T09:50:58.336Z,75.84
2019-05-22T09:51:58.507Z,74.41
2019-05-22T09:52:58.692Z,74.38
2019-05-22T09:53:58.860Z,74.52
2019-05-22T09:54:59.061Z,75.29
2019-05-22T09:55:59.217Z,74.14
2019-05-22T09:56:59.386Z,74.44
2019-05-22T09:57:59.507Z,72.72
2019-05-22T09:58:59.625Z,73.16
2019-05-22T09:59:59.740Z,74.14
2019-05-22T10:00:59.988Z,71.57
2019-05-22T10:02:00.157Z,68.40
2019-05-22T10:03:00.286Z,68.12
2019-05-22T10:04:00.453Z,68.56
2019-05-22T10:05:00.623Z,65.86
2019-05-22T10:06:00.859Z,65.99
2019-05-22T10:07:00.892Z,67.55
2019-05-22T10:08:01.880Z,68.26
2019-05-22T10:09:02.206Z,71.67
2019-05-22T10:10:01.395Z,68.05
2019-05-22T10:11:01.578Z,71.57
2019-05-22T10:12:01.743Z,70.32
2019-05-22T10:13:03.288Z,66.57
2019-05-22T10:14:02.082Z,68.26
2019-05-22T10:15:03.461Z,68.43
2019-05-22T10:16:02.467Z,64.65
2019-05-22T10:17:02.673Z,65.80
2019-05-22T10:18:03.777Z,64.96
2019-05-22T10:19:03.073Z,65.23
2019-05-22T10:20:03.286Z,62.98
2019-05-22T10:21:03.540Z,62.37
2019-05-22T10:22:03.706Z,61.87
2019-05-22T10:23:14.653Z,57.34
2019-05-22T10:24:06.096Z,63.92
2019-05-22T10:25:14.771Z,61.99
2019-05-22T10:26:06.771Z,62.30
2019-05-22T10:27:04.627Z,62.53
2019-05-22T10:28:04.763Z,63.67
2019-05-22T10:29:04.917Z,63.57
2019-05-22T10:30:05.092Z,63.57
2019-05-22T10:31:05.740Z,64.48
2019-05-22T10:32:05.398Z,66.06
2019-05-22T10:33:05.624Z,67.35
2019-05-22T10:34:05.815Z,66.64
2019-05-22T10:35:05.965Z,66.03
2019-05-22T10:36:06.182Z,65.83
2019-05-22T10:37:06.301Z,65.93
2019-05-22T10:38:06.466Z,67.05
2019-05-22T10:39:06.623Z,66.16
2019-05-22T10:40:06.784Z,67.35
2019-05-22T10:41:06.932Z,66.91
2019-05-22T10:42:07.112Z,65.12
2019-05-22T10:43:07.333Z,66.24
2019-05-22T10:44:07.486Z,65.16
2019-05-22T10:45:08.276Z,65.64
2019-05-22T10:46:07.975Z,65.00
2019-05-22T10:47:08.041Z,61.13
2019-05-22T10:48:08.232Z,61.91
2019-05-22T10:49:08.388Z,61.27
2019-05-22T10:50:08.559Z,60.06
2019-05-22T10:51:08.749Z,60.00
2019-05-22T10:52:08.897Z,60.10
2019-05-22T10:53:09.095Z,58.32
2019-05-22T10:54:09.233Z,58.62
2019-05-22T10:55:09.356Z,58.82
2019-05-22T10:56:09.559Z,60.66
2019-05-22T10:57:09.735Z,60.97
2019-05-22T10:58:09.876Z,59.45
2019-05-22T10:59:10.009Z,59.18
2019-05-22T11:00:10.146Z,60.93
2019-05-22T11:01:10.271Z,61.66
2019-05-22T11:02:10.446Z,62.14
2019-05-22T11:03:10.579Z,62.40
2019-05-22T11:04:10.725Z,61.59
2019-05-22T11:05:10.855Z,62.12
2019-05-22T11:06:10.976Z,62.96
2019-05-22T11:07:11.129Z,62.96
2019-05-22T11:08:11.248Z,62.73
2019-05-22T11:09:11.380Z,61.29
2019-05-22T11:10:11.535Z,60.38
2019-05-22T11:11:11.682Z,61.33
2019-05-22T11:12:11.817Z,59.96
2019-05-22T11:13:11.969Z,60.36
2019-05-22T11:14:12.775Z,59.96
2019-05-22T11:15:12.313Z,59.25
2019-05-22T11:16:12.497Z,59.33
2019-05-22T11:17:12.661Z,57.94
2019-05-22T11:18:12.828Z,61.37
2019-05-22T11:19:12.984Z,60.77
2019-05-22T11:20:13.166Z,58.25
2019-05-22T11:21:13.374Z,56.40
2019-05-22T11:22:13.509Z,55.21
2019-05-22T11:23:13.664Z,56.07
2019-05-22T11:24:13.796Z,54.46
2019-05-22T11:25:13.932Z,56.45
2019-05-22T11:26:14.136Z,57.05
2019-05-22T11:27:15.295Z,56.85
2019-05-22T11:28:14.414Z,56.37
2019-05-22T11:29:14.590Z,56.50
2019-05-22T11:30:14.777Z,56.70
2019-05-22T11:31:14.945Z,57.81
2019-05-22T11:32:15.124Z,57.56
2019-05-22T11:33:15.296Z,54.50
2019-05-22T11:34:15.489Z,55.11
2019-05-22T11:35:15.690Z,54.61
2019-05-22T11:36:15.862Z,55.14
2019-05-22T11:37:16.032Z,54.63
2019-05-22T11:38:16.233Z,54.91
2019-05-22T11:39:16.306Z,53.88
2019-05-22T11:40:16.465Z,53.95
2019-05-22T11:41:16.618Z,53.83
2019-05-22T11:42:16.820Z,53.20
2019-05-22T11:43:16.964Z,53.72
2019-05-22T11:44:17.124Z,53.14
2019-05-22T11:45:17.261Z,53.25
2019-05-22T11:46:17.393Z,50.88
2019-05-22T11:47:17.590Z,53.05
2019-05-22T11:48:17.685Z,54.53
2019-05-22T11:49:17.859Z,54.83
2019-05-22T11:50:18.782Z,56.78
2019-05-22T11:51:18.159Z,60.60
2019-05-22T11:52:18.291Z,57.18
2019-05-22T11:53:18.451Z,59.07
2019-05-22T11:54:18.627Z,55.14
2019-05-22T11:55:18.800Z,56.42
2019-05-22T11:56:18.979Z,54.83
2019-05-22T11:57:19.170Z,54.86
2019-05-22T11:58:19.361Z,55.87
2019-05-22T11:59:19.561Z,55.94
2019-05-22T12:00:19.783Z,54.41
2019-05-22T12:01:20.955Z,53.27
2019-05-22T12:02:20.093Z,54.55
2019-05-22T12:03:20.793Z,52.42
2019-05-22T12:04:20.460Z,52.82
2019-05-22T12:05:20.628Z,52.69
2019-05-22T12:06:20.771Z,51.68
2019-05-22T12:07:20.975Z,53.20
2019-05-22T12:08:21.168Z,51.09
2019-05-22T12:09:21.370Z,52.01
2019-05-22T12:10:21.553Z,52.22
2019-05-22T12:11:21.764Z,51.49
2019-05-22T12:12:21.973Z,52.11
2019-05-22T12:13:22.178Z,52.74
2019-05-22T12:14:22.378Z,53.14
2019-05-22T12:15:22.536Z,53.55
2019-05-22T12:16:22.721Z,53.45
2019-05-22T12:17:37.374Z,52.80
2019-05-22T12:18:25.022Z,50.96
2019-05-22T12:19:23.243Z,50.93
2019-05-22T12:20:23.421Z,49.48
2019-05-22T12:21:23.593Z,48.58
2019-05-22T12:22:23.762Z,48.88
2019-05-22T12:23:23.942Z,48.83
2019-05-22T12:24:27.936Z,51.49
2019-05-22T12:25:26.449Z,50.91
2019-05-22T12:26:24.566Z,52.62
2019-05-22T12:27:24.743Z,51.71
2019-05-22T12:28:24.926Z,51.39
2019-05-22T12:29:25.088Z,51.04
2019-05-22T12:30:25.825Z,49.83
2019-05-22T12:31:26.346Z,51.44
2019-05-22T12:32:25.642Z,50.56
2019-05-22T12:33:26.379Z,49.76
2019-05-22T12:34:26.142Z,48.97
2019-05-22T12:35:26.307Z,51.84
2019-05-22T12:36:27.296Z,52.49
2019-05-22T12:37:26.698Z,52.06
2019-05-22T12:38:27.492Z,51.66
2019-05-22T12:39:28.081Z,51.34
2019-05-22T12:40:27.325Z,49.60
2019-05-22T12:41:27.516Z,49.46
2019-05-22T12:42:27.678Z,48.23
2019-05-22T12:43:27.829Z,47.20
2019-05-22T12:44:27.976Z,45.78
2019-05-22T12:45:28.158Z,46.28
2019-05-22T12:46:28.345Z,46.86
2019-05-22T12:47:28.513Z,45.68
2019-05-22T12:48:28.662Z,45.58
2019-05-22T12:49:28.824Z,47.28
2019-05-22T12:50:28.989Z,46.81
2019-05-22T12:51:29.114Z,45.54
2019-05-22T12:52:29.296Z,46.89
2019-05-22T12:53:29.462Z,49.83
2019-05-22T12:54:45.194Z,47.80